Flight Track Log - Related Links

Times and Time Zones

All times are in EDT time to prevent confusion due to time zone crossing. See the FIN368 flight status page for this flight to view local times or setup timezone preferences in your user account.

Time Position Orientation Groundspeed Altitude Reporting Facility
EDT Latitude Longitude Course Direction KTS MPH feet Rate Location/Type
Mon 10:47:00 AM 64.4805 25.3107 182° South  Level Estimated
Mon 10:48:00 AM 64.3681 25.2999 182° South  Level Estimated
Mon 10:49:00 AM 64.2557 25.2893 182° South  Level Estimated
Mon 10:50:00 AM 64.1433 25.2787 182° South  Level Estimated
Mon 10:51:00 AM 64.0309 25.2682 182° South  Level Estimated
Mon 10:52:00 AM 63.9185 25.2578 182° South  Level Estimated
Mon 10:53:00 AM 63.8061 25.2475 182° South  Level Estimated
Mon 10:54:00 AM 63.6937 25.2373 182° South  Level Estimated
Mon 10:55:00 AM 63.5813 25.2271 182° South  Level Estimated
Mon 10:56:00 AM 63.4689 25.2170 182° South  Level Estimated
Mon 10:57:00 AM 63.3565 25.2070 182° South  Level Estimated
Mon 10:58:00 AM 63.2441 25.1971 182° South  Level Estimated
Mon 10:59:00 AM 63.1317 25.1873 182° South  Level Estimated
Mon 11:00:00 AM 63.0193 25.1775 182° South  Level Estimated
Mon 11:01:00 AM 62.9069 25.1678 182° South  Level Estimated
Mon 11:02:00 AM 62.7945 25.1582 182° South  Level Estimated
Mon 11:03:00 AM 62.6821 25.1486 182° South  Level Estimated
Mon 11:04:00 AM 62.5697 25.1392 182° South  Level Estimated
Mon 11:05:00 AM 62.4573 25.1298 182° South  Level Estimated
Mon 11:06:00 AM 62.3449 25.1204 182° South  Level Estimated
Mon 11:07:00 AM 62.2325 25.1112 182° South  Level Estimated
Mon 11:08:00 AM 62.1201 25.1020 182° South  Level Estimated
Mon 11:09:00 AM 62.0077 25.0929 182° South  Level Estimated
Mon 11:10:00 AM 61.8953 25.0838 182° South  Level Estimated
Mon 11:11:00 AM 61.7829 25.0748 182° South  Level Estimated
Mon 11:12:00 AM 61.6705 25.0659 182° South  Level Estimated
Mon 11:13:00 AM 61.5581 25.0570 182° South  Level Estimated
Mon 11:14:00 AM 61.4457 25.0482 182° South  Level Estimated
Mon 11:15:00 AM 61.3332 25.0395 182° South  Level Estimated
Mon 11:16:00 AM 61.2208 25.0308 182° South  Level Estimated
Mon 11:17:00 AM 61.1084 25.0222 182° South  Level Estimated
Mon 11:18:00 AM 60.9960 25.0137 182° South  Level Estimated
Mon 11:19:00 AM 60.8836 25.0052 182° South  Level Estimated
Mon 11:20:00 AM 60.7712 24.9968 182° South  Level Estimated
Mon 11:21:00 AM 60.6588 24.9884 182° South  Level Estimated
Mon 11:22:00 AM 60.5464 24.9801 182° South  Level Estimated
Mon 11:23:00 AM 60.4340 24.9718 182° South  Level Estimated
Mon 11:24:00 AM 60.3216 24.9636 182° South  Level Estimated
Mon 11:25:00 AM 60.3172 24.9633 182° South  Level Estimated
Mon 11:26:00 AM 60.3172 24.9633 37° Northeast  Level Estimated
Mon 11:27:00 AM 60.3172 24.9633 37° Northeast  Level Estimated
Mon 11:28:00 AM 60.3172 24.9633 37° Northeast  Level Estimated
Mon 11:29:00 AM 60.3172 24.9633 37° Northeast  Level Estimated
Mon 11:30:00 AM 60.3172 24.9633 37° Northeast  Level Estimated
Mon 11:31:00 AM 60.3172 24.9633 37° Northeast  Level Estimated
Mon 11:32:00 AM 60.3172 24.9633 37° Northeast  Level Estimated

Login

Don't have an account? Register now (free) for customized features, flight alerts, and more!